sensor_id;sensor_type;location;lat;lon;timestamp;P1;durP1;ratioP1;P2;durP2;ratioP2
71734;SDS011;59577;52.122;5.406;2022-09-09T00:00:32;1.40;;;0.38;;
71734;SDS011;59577;52.122;5.406;2022-09-09T00:08:52;0.47;;;0.20;;
71734;SDS011;59577;52.122;5.406;2022-09-09T00:11:48;1.23;;;0.20;;
71734;SDS011;59577;52.122;5.406;2022-09-09T00:17:08;1.38;;;0.30;;
71734;SDS011;59577;52.122;5.406;2022-09-09T00:19:48;0.60;;;0.30;;
71734;SDS011;59577;52.122;5.406;2022-09-09T00:22:23;2.10;;;0.30;;
71734;SDS011;59577;52.122;5.406;2022-09-09T00:24:53;3.20;;;0.30;;
71734;SDS011;59577;52.122;5.406;2022-09-09T00:27:24;0.32;;;0.20;;
71734;SDS011;59577;52.122;5.406;2022-09-09T00:30:11;1.02;;;0.40;;
71734;SDS011;59577;52.122;5.406;2022-09-09T00:32:38;0.82;;;0.50;;
71734;SDS011;59577;52.122;5.406;2022-09-09T00:37:50;2.27;;;0.70;;
71734;SDS011;59577;52.122;5.406;2022-09-09T00:40:24;1.33;;;0.43;;
71734;SDS011;59577;52.122;5.406;2022-09-09T00:43:01;1.50;;;0.55;;
71734;SDS011;59577;52.122;5.406;2022-09-09T00:51:24;2.57;;;0.70;;
71734;SDS011;59577;52.122;5.406;2022-09-09T00:56:38;2.08;;;1.15;;
71734;SDS011;59577;52.122;5.406;2022-09-09T01:05:15;1.40;;;0.90;;
71734;SDS011;59577;52.122;5.406;2022-09-09T01:07:50;3.38;;;1.05;;
71734;SDS011;59577;52.122;5.406;2022-09-09T01:10:30;1.17;;;0.88;;
71734;SDS011;59577;52.122;5.406;2022-09-09T01:13:08;1.13;;;0.75;;
71734;SDS011;59577;52.122;5.406;2022-09-09T01:15:41;1.30;;;0.85;;
71734;SDS011;59577;52.122;5.406;2022-09-09T01:18:11;3.23;;;0.87;;
71734;SDS011;59577;52.122;5.406;2022-09-09T01:24:04;1.67;;;0.90;;
71734;SDS011;59577;52.122;5.406;2022-09-09T01:26:43;5.35;;;1.10;;
71734;SDS011;59577;52.122;5.406;2022-09-09T01:29:12;4.20;;;1.48;;
71734;SDS011;59577;52.122;5.406;2022-09-09T01:31:41;3.93;;;1.00;;
71734;SDS011;59577;52.122;5.406;2022-09-09T01:34:18;1.77;;;0.95;;
71734;SDS011;59577;52.122;5.406;2022-09-09T01:37:04;1.83;;;1.40;;
71734;SDS011;59577;52.122;5.406;2022-09-09T01:39:33;2.58;;;1.30;;
71734;SDS011;59577;52.122;5.406;2022-09-09T01:42:02;1.65;;;1.10;;
71734;SDS011;59577;52.122;5.406;2022-09-09T01:44:32;4.03;;;1.10;;
71734;SDS011;59577;52.122;5.406;2022-09-09T01:47:01;2.63;;;1.33;;
71734;SDS011;59577;52.122;5.406;2022-09-09T01:49:28;3.08;;;1.13;;
71734;SDS011;59577;52.122;5.406;2022-09-09T01:51:55;2.03;;;1.42;;
71734;SDS011;59577;52.122;5.406;2022-09-09T01:54:24;3.45;;;1.15;;
71734;SDS011;59577;52.122;5.406;2022-09-09T02:00:04;2.53;;;1.35;;
71734;SDS011;59577;52.122;5.406;2022-09-09T02:05:42;2.25;;;1.60;;
71734;SDS011;59577;52.122;5.406;2022-09-09T02:08:16;1.90;;;1.35;;
71734;SDS011;59577;52.122;5.406;2022-09-09T02:13:36;1.92;;;1.25;;
71734;SDS011;59577;52.122;5.406;2022-09-09T02:16:07;2.13;;;1.45;;
71734;SDS011;59577;52.122;5.406;2022-09-09T02:18:42;3.50;;;1.50;;
71734;SDS011;59577;52.122;5.406;2022-09-09T02:21:14;3.78;;;1.63;;
71734;SDS011;59577;52.122;5.406;2022-09-09T02:23:43;4.03;;;2.00;;
71734;SDS011;59577;52.122;5.406;2022-09-09T02:26:13;2.95;;;1.67;;
71734;SDS011;59577;52.122;5.406;2022-09-09T02:28:46;3.65;;;1.70;;
71734;SDS011;59577;52.122;5.406;2022-09-09T02:31:16;2.05;;;1.50;;
71734;SDS011;59577;52.122;5.406;2022-09-09T02:33:47;2.47;;;1.90;;
71734;SDS011;59577;52.122;5.406;2022-09-09T02:36:19;3.60;;;1.40;;
71734;SDS011;59577;52.122;5.406;2022-09-09T02:38:50;3.38;;;1.83;;
71734;SDS011;59577;52.122;5.406;2022-09-09T02:41:20;2.65;;;1.85;;
71734;SDS011;59577;52.122;5.406;2022-09-09T02:43:54;1.88;;;1.40;;
71734;SDS011;59577;52.122;5.406;2022-09-09T02:49:09;3.90;;;1.73;;
71734;SDS011;59577;52.122;5.406;2022-09-09T02:54:28;3.00;;;1.80;;
71734;SDS011;59577;52.122;5.406;2022-09-09T02:57:04;7.00;;;2.10;;
71734;SDS011;59577;52.122;5.406;2022-09-09T02:59:36;4.93;;;2.17;;
71734;SDS011;59577;52.122;5.406;2022-09-09T03:02:03;2.23;;;1.63;;
71734;SDS011;59577;52.122;5.406;2022-09-09T03:04:30;3.30;;;2.20;;
71734;SDS011;59577;52.122;5.406;2022-09-09T03:06:57;5.32;;;1.75;;
71734;SDS011;59577;52.122;5.406;2022-09-09T03:09:25;2.53;;;1.80;;
71734;SDS011;59577;52.122;5.406;2022-09-09T03:11:53;2.15;;;1.58;;
71734;SDS011;59577;52.122;5.406;2022-09-09T03:14:21;2.70;;;1.67;;
71734;SDS011;59577;52.122;5.406;2022-09-09T03:16:51;2.45;;;2.25;;
71734;SDS011;59577;52.122;5.406;2022-09-09T03:19:18;4.43;;;2.38;;
71734;SDS011;59577;52.122;5.406;2022-09-09T03:21:46;3.53;;;2.42;;
71734;SDS011;59577;52.122;5.406;2022-09-09T03:24:13;4.07;;;2.70;;
71734;SDS011;59577;52.122;5.406;2022-09-09T03:26:40;4.53;;;2.50;;
71734;SDS011;59577;52.122;5.406;2022-09-09T03:29:13;3.67;;;2.60;;
71734;SDS011;59577;52.122;5.406;2022-09-09T03:31:40;5.32;;;2.42;;
71734;SDS011;59577;52.122;5.406;2022-09-09T03:34:08;3.67;;;2.08;;
71734;SDS011;59577;52.122;5.406;2022-09-09T03:36:36;4.28;;;2.30;;
71734;SDS011;59577;52.122;5.406;2022-09-09T03:39:03;3.50;;;2.27;;
71734;SDS011;59577;52.122;5.406;2022-09-09T03:41:30;5.00;;;2.22;;
71734;SDS011;59577;52.122;5.406;2022-09-09T03:43:56;4.57;;;2.60;;
71734;SDS011;59577;52.122;5.406;2022-09-09T03:46:24;3.95;;;2.63;;
71734;SDS011;59577;52.122;5.406;2022-09-09T03:48:51;5.53;;;2.60;;
71734;SDS011;59577;52.122;5.406;2022-09-09T03:51:21;2.83;;;2.43;;
71734;SDS011;59577;52.122;5.406;2022-09-09T03:53:48;6.35;;;2.78;;
71734;SDS011;59577;52.122;5.406;2022-09-09T03:56:15;5.45;;;2.88;;
71734;SDS011;59577;52.122;5.406;2022-09-09T03:58:41;4.25;;;2.67;;
71734;SDS011;59577;52.122;5.406;2022-09-09T04:01:09;3.88;;;2.55;;
71734;SDS011;59577;52.122;5.406;2022-09-09T04:03:39;3.87;;;2.80;;
71734;SDS011;59577;52.122;5.406;2022-09-09T04:06:07;7.22;;;3.13;;
71734;SDS011;59577;52.122;5.406;2022-09-09T04:08:35;4.05;;;2.65;;
71734;SDS011;59577;52.122;5.406;2022-09-09T04:11:03;4.28;;;2.70;;
71734;SDS011;59577;52.122;5.406;2022-09-09T04:13:33;7.32;;;3.05;;
71734;SDS011;59577;52.122;5.406;2022-09-09T04:16:01;3.60;;;2.83;;
71734;SDS011;59577;52.122;5.406;2022-09-09T04:18:30;3.40;;;2.60;;
71734;SDS011;59577;52.122;5.406;2022-09-09T04:20:57;4.47;;;2.75;;
71734;SDS011;59577;52.122;5.406;2022-09-09T04:23:24;4.07;;;2.85;;
71734;SDS011;59577;52.122;5.406;2022-09-09T04:25:52;2.90;;;2.60;;
71734;SDS011;59577;52.122;5.406;2022-09-09T04:28:20;3.00;;;2.20;;
71734;SDS011;59577;52.122;5.406;2022-09-09T04:30:49;2.83;;;2.42;;
71734;SDS011;59577;52.122;5.406;2022-09-09T04:33:15;3.58;;;2.65;;
71734;SDS011;59577;52.122;5.406;2022-09-09T04:35:44;6.78;;;2.90;;
71734;SDS011;59577;52.122;5.406;2022-09-09T04:38:11;2.70;;;2.38;;
71734;SDS011;59577;52.122;5.406;2022-09-09T04:40:38;4.00;;;2.40;;
71734;SDS011;59577;52.122;5.406;2022-09-09T04:43:09;7.75;;;3.00;;
71734;SDS011;59577;52.122;5.406;2022-09-09T04:45:40;3.83;;;2.28;;
71734;SDS011;59577;52.122;5.406;2022-09-09T04:48:07;2.67;;;2.05;;
71734;SDS011;59577;52.122;5.406;2022-09-09T04:50:35;9.38;;;2.50;;
71734;SDS011;59577;52.122;5.406;2022-09-09T04:53:02;3.03;;;1.90;;
71734;SDS011;59577;52.122;5.406;2022-09-09T04:55:31;6.88;;;2.47;;
71734;SDS011;59577;52.122;5.406;2022-09-09T04:58:02;3.97;;;1.90;;
71734;SDS011;59577;52.122;5.406;2022-09-09T05:00:29;3.88;;;2.05;;
71734;SDS011;59577;52.122;5.406;2022-09-09T05:02:56;4.05;;;1.63;;
71734;SDS011;59577;52.122;5.406;2022-09-09T05:05:22;4.70;;;2.03;;
71734;SDS011;59577;52.122;5.406;2022-09-09T05:07:49;2.67;;;2.30;;
71734;SDS011;59577;52.122;5.406;2022-09-09T05:10:15;3.85;;;1.98;;
71734;SDS011;59577;52.122;5.406;2022-09-09T05:12:51;6.00;;;1.75;;
71734;SDS011;59577;52.122;5.406;2022-09-09T05:15:19;3.60;;;1.85;;
71734;SDS011;59577;52.122;5.406;2022-09-09T05:17:47;6.40;;;2.10;;
71734;SDS011;59577;52.122;5.406;2022-09-09T05:20:13;4.43;;;2.10;;
71734;SDS011;59577;52.122;5.406;2022-09-09T05:22:42;6.28;;;2.15;;
71734;SDS011;59577;52.122;5.406;2022-09-09T05:25:09;5.10;;;2.28;;
71734;SDS011;59577;52.122;5.406;2022-09-09T05:27:35;7.03;;;2.15;;
71734;SDS011;59577;52.122;5.406;2022-09-09T05:30:02;3.67;;;2.03;;
71734;SDS011;59577;52.122;5.406;2022-09-09T05:32:29;5.32;;;2.03;;
71734;SDS011;59577;52.122;5.406;2022-09-09T05:34:58;6.03;;;1.83;;
71734;SDS011;59577;52.122;5.406;2022-09-09T05:37:25;4.32;;;1.73;;
71734;SDS011;59577;52.122;5.406;2022-09-09T05:39:51;3.75;;;1.98;;
71734;SDS011;59577;52.122;5.406;2022-09-09T05:42:18;6.43;;;1.80;;
71734;SDS011;59577;52.122;5.406;2022-09-09T05:44:44;3.63;;;1.88;;
71734;SDS011;59577;52.122;5.406;2022-09-09T05:47:11;6.50;;;2.83;;
71734;SDS011;59577;52.122;5.406;2022-09-09T05:49:37;5.93;;;2.17;;
71734;SDS011;59577;52.122;5.406;2022-09-09T05:52:04;5.95;;;1.77;;
71734;SDS011;59577;52.122;5.406;2022-09-09T05:54:30;4.23;;;2.30;;
71734;SDS011;59577;52.122;5.406;2022-09-09T05:56:57;4.38;;;1.55;;
71734;SDS011;59577;52.122;5.406;2022-09-09T05:59:25;10.05;;;1.88;;
71734;SDS011;59577;52.122;5.406;2022-09-09T06:01:51;5.95;;;1.70;;
71734;SDS011;59577;52.122;5.406;2022-09-09T06:04:18;6.03;;;1.92;;
71734;SDS011;59577;52.122;5.406;2022-09-09T06:06:50;4.37;;;1.83;;
71734;SDS011;59577;52.122;5.406;2022-09-09T06:09:17;5.47;;;1.92;;
71734;SDS011;59577;52.122;5.406;2022-09-09T06:11:44;6.15;;;1.73;;
71734;SDS011;59577;52.122;5.406;2022-09-09T06:14:10;4.50;;;1.70;;
71734;SDS011;59577;52.122;5.406;2022-09-09T06:16:37;4.88;;;1.80;;
71734;SDS011;59577;52.122;5.406;2022-09-09T06:19:04;5.70;;;2.00;;
71734;SDS011;59577;52.122;5.406;2022-09-09T06:21:31;5.00;;;1.70;;
71734;SDS011;59577;52.122;5.406;2022-09-09T06:23:59;4.10;;;1.45;;
71734;SDS011;59577;52.122;5.406;2022-09-09T06:26:27;4.32;;;1.90;;
71734;SDS011;59577;52.122;5.406;2022-09-09T06:28:58;10.70;;;1.80;;
71734;SDS011;59577;52.122;5.406;2022-09-09T06:31:26;2.65;;;1.35;;
71734;SDS011;59577;52.122;5.406;2022-09-09T06:33:57;8.20;;;1.40;;
71734;SDS011;59577;52.122;5.406;2022-09-09T06:36:25;5.15;;;1.27;;
71734;SDS011;59577;52.122;5.406;2022-09-09T06:38:53;4.60;;;1.67;;
71734;SDS011;59577;52.122;5.406;2022-09-09T06:41:21;8.70;;;1.60;;
71734;SDS011;59577;52.122;5.406;2022-09-09T06:43:49;4.97;;;1.30;;
71734;SDS011;59577;52.122;5.406;2022-09-09T06:46:19;8.07;;;1.40;;
71734;SDS011;59577;52.122;5.406;2022-09-09T06:48:54;7.05;;;1.50;;
71734;SDS011;59577;52.122;5.406;2022-09-09T06:51:22;3.35;;;1.50;;
71734;SDS011;59577;52.122;5.406;2022-09-09T06:53:50;10.57;;;1.25;;
71734;SDS011;59577;52.122;5.406;2022-09-09T06:58:50;3.72;;;1.08;;
71734;SDS011;59577;52.122;5.406;2022-09-09T07:01:27;5.10;;;1.10;;
71734;SDS011;59577;52.122;5.406;2022-09-09T07:03:56;6.68;;;1.55;;
71734;SDS011;59577;52.122;5.406;2022-09-09T07:06:29;8.15;;;1.30;;
71734;SDS011;59577;52.122;5.406;2022-09-09T07:08:58;3.88;;;0.88;;
71734;SDS011;59577;52.122;5.406;2022-09-09T07:11:27;7.15;;;1.35;;
71734;SDS011;59577;52.122;5.406;2022-09-09T07:13:56;7.43;;;1.17;;
71734;SDS011;59577;52.122;5.406;2022-09-09T07:16:24;3.85;;;0.82;;
71734;SDS011;59577;52.122;5.406;2022-09-09T07:18:51;2.95;;;0.90;;
71734;SDS011;59577;52.122;5.406;2022-09-09T07:21:21;5.57;;;1.67;;
71734;SDS011;59577;52.122;5.406;2022-09-09T07:23:48;4.28;;;1.10;;
71734;SDS011;59577;52.122;5.406;2022-09-09T07:26:16;5.68;;;0.80;;
71734;SDS011;59577;52.122;5.406;2022-09-09T07:28:45;6.10;;;1.15;;
71734;SDS011;59577;52.122;5.406;2022-09-09T07:31:13;6.80;;;1.20;;
71734;SDS011;59577;52.122;5.406;2022-09-09T07:33:43;6.35;;;0.80;;
71734;SDS011;59577;52.122;5.406;2022-09-09T07:36:14;6.05;;;1.58;;
71734;SDS011;59577;52.122;5.406;2022-09-09T07:38:44;4.65;;;1.00;;
71734;SDS011;59577;52.122;5.406;2022-09-09T07:41:32;4.10;;;0.88;;
71734;SDS011;59577;52.122;5.406;2022-09-09T07:44:04;4.32;;;0.90;;
71734;SDS011;59577;52.122;5.406;2022-09-09T07:46:44;5.13;;;1.10;;
71734;SDS011;59577;52.122;5.406;2022-09-09T07:49:11;6.90;;;0.85;;
71734;SDS011;59577;52.122;5.406;2022-09-09T07:51:39;6.57;;;1.33;;
71734;SDS011;59577;52.122;5.406;2022-09-09T07:54:11;3.88;;;0.90;;
71734;SDS011;59577;52.122;5.406;2022-09-09T07:56:39;5.03;;;1.10;;
71734;SDS011;59577;52.122;5.406;2022-09-09T07:59:07;6.38;;;1.17;;
71734;SDS011;59577;52.122;5.406;2022-09-09T08:04:06;8.88;;;1.50;;
71734;SDS011;59577;52.122;5.406;2022-09-09T08:06:42;5.22;;;1.33;;
71734;SDS011;59577;52.122;5.406;2022-09-09T08:09:10;7.55;;;1.33;;
71734;SDS011;59577;52.122;5.406;2022-09-09T08:11:37;5.88;;;1.45;;
71734;SDS011;59577;52.122;5.406;2022-09-09T08:14:05;4.97;;;0.70;;
71734;SDS011;59577;52.122;5.406;2022-09-09T08:16:34;3.78;;;0.93;;
71734;SDS011;59577;52.122;5.406;2022-09-09T08:19:07;3.58;;;0.93;;
71734;SDS011;59577;52.122;5.406;2022-09-09T08:21:34;5.50;;;1.08;;
71734;SDS011;59577;52.122;5.406;2022-09-09T08:24:03;5.63;;;0.80;;
71734;SDS011;59577;52.122;5.406;2022-09-09T08:26:32;2.45;;;0.80;;
71734;SDS011;59577;52.122;5.406;2022-09-09T08:29:01;5.63;;;1.35;;
71734;SDS011;59577;52.122;5.406;2022-09-09T08:31:33;5.97;;;0.80;;
71734;SDS011;59577;52.122;5.406;2022-09-09T08:34:01;5.88;;;0.70;;
71734;SDS011;59577;52.122;5.406;2022-09-09T08:36:33;4.73;;;0.90;;
71734;SDS011;59577;52.122;5.406;2022-09-09T08:39:03;5.57;;;0.77;;
71734;SDS011;59577;52.122;5.406;2022-09-09T08:55:27;3.65;;;0.77;;
71734;SDS011;59577;52.122;5.406;2022-09-09T08:58:04;3.67;;;1.05;;
71734;SDS011;59577;52.122;5.406;2022-09-09T09:00:41;3.80;;;0.77;;
71734;SDS011;59577;52.122;5.406;2022-09-09T09:03:22;2.80;;;1.00;;
71734;SDS011;59577;52.122;5.406;2022-09-09T09:09:15;9.18;;;1.52;;
71734;SDS011;59577;52.122;5.406;2022-09-09T09:12:00;3.45;;;0.52;;
71734;SDS011;59577;52.122;5.406;2022-09-09T09:14:29;5.72;;;0.80;;
71734;SDS011;59577;52.122;5.406;2022-09-09T09:17:06;4.65;;;1.08;;
71734;SDS011;59577;52.122;5.406;2022-09-09T09:19:39;5.32;;;0.55;;
71734;SDS011;59577;52.122;5.406;2022-09-09T09:22:17;5.13;;;0.93;;
71734;SDS011;59577;52.122;5.406;2022-09-09T09:24:53;3.55;;;0.90;;
71734;SDS011;59577;52.122;5.406;2022-09-09T09:27:32;4.78;;;1.08;;
71734;SDS011;59577;52.122;5.406;2022-09-09T09:30:14;3.33;;;0.87;;
71734;SDS011;59577;52.122;5.406;2022-09-09T09:33:00;4.85;;;0.70;;
71734;SDS011;59577;52.122;5.406;2022-09-09T09:35:34;4.88;;;0.80;;
71734;SDS011;59577;52.122;5.406;2022-09-09T09:38:21;4.18;;;1.00;;
71734;SDS011;59577;52.122;5.406;2022-09-09T09:41:09;7.38;;;0.80;;
71734;SDS011;59577;52.122;5.406;2022-09-09T09:43:37;7.18;;;1.15;;
71734;SDS011;59577;52.122;5.406;2022-09-09T09:46:22;4.32;;;1.35;;
71734;SDS011;59577;52.122;5.406;2022-09-09T09:49:01;4.43;;;0.93;;
71734;SDS011;59577;52.122;5.406;2022-09-09T09:51:31;6.72;;;0.80;;
71734;SDS011;59577;52.122;5.406;2022-09-09T09:56:55;5.40;;;0.73;;
71734;SDS011;59577;52.122;5.406;2022-09-09T10:05:01;5.50;;;0.70;;
71734;SDS011;59577;52.122;5.406;2022-09-09T10:10:41;2.92;;;0.75;;
71734;SDS011;59577;52.122;5.406;2022-09-09T10:18:58;6.65;;;1.08;;
71734;SDS011;59577;52.122;5.406;2022-09-09T10:24:24;6.03;;;0.70;;
71734;SDS011;59577;52.122;5.406;2022-09-09T10:27:20;6.40;;;0.80;;
71734;SDS011;59577;52.122;5.406;2022-09-09T10:30:41;6.30;;;0.80;;
71734;SDS011;59577;52.122;5.406;2022-09-09T10:33:16;3.38;;;0.80;;
71734;SDS011;59577;52.122;5.406;2022-09-09T10:35:54;6.90;;;1.05;;
71734;SDS011;59577;52.122;5.406;2022-09-09T10:38:41;5.13;;;0.90;;
71734;SDS011;59577;52.122;5.406;2022-09-09T10:41:19;9.75;;;1.25;;
71734;SDS011;59577;52.122;5.406;2022-09-09T10:43:57;7.55;;;0.77;;
71734;SDS011;59577;52.122;5.406;2022-09-09T10:46:55;7.65;;;1.25;;
71734;SDS011;59577;52.122;5.406;2022-09-09T10:49:59;4.18;;;0.77;;
71734;SDS011;59577;52.122;5.406;2022-09-09T10:52:51;4.07;;;0.90;;
71734;SDS011;59577;52.122;5.406;2022-09-09T10:55:24;4.65;;;0.88;;
71734;SDS011;59577;52.122;5.406;2022-09-09T10:58:02;2.65;;;0.82;;
71734;SDS011;59577;52.122;5.406;2022-09-09T11:03:03;4.03;;;1.05;;
71734;SDS011;59577;52.122;5.406;2022-09-09T11:08:18;4.78;;;1.00;;
71734;SDS011;59577;52.122;5.406;2022-09-09T11:13:23;6.47;;;1.27;;
71734;SDS011;59577;52.122;5.406;2022-09-09T11:15:58;6.03;;;1.42;;
71734;SDS011;59577;52.122;5.406;2022-09-09T11:18:30;5.28;;;0.98;;
71734;SDS011;59577;52.122;5.406;2022-09-09T11:21:01;8.45;;;1.13;;
71734;SDS011;59577;52.122;5.406;2022-09-09T11:23:42;6.00;;;1.00;;
71734;SDS011;59577;52.122;5.406;2022-09-09T11:26:37;3.22;;;1.13;;
71734;SDS011;59577;52.122;5.406;2022-09-09T11:29:24;4.93;;;0.90;;
71734;SDS011;59577;52.122;5.406;2022-09-09T11:35:07;6.43;;;0.95;;
71734;SDS011;59577;52.122;5.406;2022-09-09T11:37:54;3.25;;;0.52;;
71734;SDS011;59577;52.122;5.406;2022-09-09T11:40:31;5.07;;;0.75;;
71734;SDS011;59577;52.122;5.406;2022-09-09T11:43:02;3.90;;;0.65;;
71734;SDS011;59577;52.122;5.406;2022-09-09T11:45:51;3.33;;;0.60;;
71734;SDS011;59577;52.122;5.406;2022-09-09T11:48:33;3.28;;;1.77;;
71734;SDS011;59577;52.122;5.406;2022-09-09T11:53:50;3.85;;;0.70;;
71734;SDS011;59577;52.122;5.406;2022-09-09T11:59:19;3.55;;;0.73;;
71734;SDS011;59577;52.122;5.406;2022-09-09T12:01:58;5.97;;;1.10;;
71734;SDS011;59577;52.122;5.406;2022-09-09T12:04:31;4.93;;;1.00;;
71734;SDS011;59577;52.122;5.406;2022-09-09T12:09:48;6.88;;;1.00;;
71734;SDS011;59577;52.122;5.406;2022-09-09T12:12:25;3.40;;;0.93;;
71734;SDS011;59577;52.122;5.406;2022-09-09T12:14:57;2.05;;;0.93;;
71734;SDS011;59577;52.122;5.406;2022-09-09T12:17:44;4.72;;;1.10;;
71734;SDS011;59577;52.122;5.406;2022-09-09T12:28:25;5.18;;;0.98;;
71734;SDS011;59577;52.122;5.406;2022-09-09T12:33:44;3.42;;;0.73;;
71734;SDS011;59577;52.122;5.406;2022-09-09T12:36:12;4.80;;;1.00;;
71734;SDS011;59577;52.122;5.406;2022-09-09T12:38:45;5.82;;;1.40;;
71734;SDS011;59577;52.122;5.406;2022-09-09T12:41:18;5.03;;;1.10;;
71734;SDS011;59577;52.122;5.406;2022-09-09T12:43:49;2.88;;;1.20;;
71734;SDS011;59577;52.122;5.406;2022-09-09T12:46:39;3.05;;;1.10;;
71734;SDS011;59577;52.122;5.406;2022-09-09T12:49:23;2.45;;;0.90;;
71734;SDS011;59577;52.122;5.406;2022-09-09T12:52:03;3.83;;;1.30;;
71734;SDS011;59577;52.122;5.406;2022-09-09T12:54:34;2.22;;;1.00;;
71734;SDS011;59577;52.122;5.406;2022-09-09T12:57:02;3.33;;;0.93;;
71734;SDS011;59577;52.122;5.406;2022-09-09T12:59:37;5.43;;;1.35;;
71734;SDS011;59577;52.122;5.406;2022-09-09T13:02:16;3.53;;;1.10;;
71734;SDS011;59577;52.122;5.406;2022-09-09T13:04:45;3.58;;;1.48;;
71734;SDS011;59577;52.122;5.406;2022-09-09T13:07:13;3.65;;;0.82;;
71734;SDS011;59577;52.122;5.406;2022-09-09T13:09:43;3.38;;;0.80;;
71734;SDS011;59577;52.122;5.406;2022-09-09T13:12:13;4.57;;;0.80;;
71734;SDS011;59577;52.122;5.406;2022-09-09T13:14:43;3.42;;;0.82;;
71734;SDS011;59577;52.122;5.406;2022-09-09T13:17:18;4.30;;;0.95;;
71734;SDS011;59577;52.122;5.406;2022-09-09T13:19:48;4.43;;;1.13;;
71734;SDS011;59577;52.122;5.406;2022-09-09T13:22:20;4.50;;;1.08;;
71734;SDS011;59577;52.122;5.406;2022-09-09T13:24:47;5.75;;;0.75;;
71734;SDS011;59577;52.122;5.406;2022-09-09T13:27:32;3.30;;;0.80;;
71734;SDS011;59577;52.122;5.406;2022-09-09T13:30:01;2.25;;;0.90;;
71734;SDS011;59577;52.122;5.406;2022-09-09T13:32:28;4.27;;;0.90;;
71734;SDS011;59577;52.122;5.406;2022-09-09T13:34:56;7.35;;;1.48;;
71734;SDS011;59577;52.122;5.406;2022-09-09T13:40:00;5.63;;;1.20;;
71734;SDS011;59577;52.122;5.406;2022-09-09T13:42:29;4.43;;;1.23;;
71734;SDS011;59577;52.122;5.406;2022-09-09T13:44:58;2.27;;;0.87;;
71734;SDS011;59577;52.122;5.406;2022-09-09T13:47:31;8.73;;;1.27;;
71734;SDS011;59577;52.122;5.406;2022-09-09T13:52:57;3.80;;;0.90;;
71734;SDS011;59577;52.122;5.406;2022-09-09T13:55:25;3.20;;;0.95;;
71734;SDS011;59577;52.122;5.406;2022-09-09T13:57:54;4.43;;;1.17;;
71734;SDS011;59577;52.122;5.406;2022-09-09T14:00:21;2.55;;;1.10;;
71734;SDS011;59577;52.122;5.406;2022-09-09T14:02:48;4.57;;;1.17;;
71734;SDS011;59577;52.122;5.406;2022-09-09T14:05:15;3.97;;;0.80;;
71734;SDS011;59577;52.122;5.406;2022-09-09T14:07:42;2.92;;;0.88;;
71734;SDS011;59577;52.122;5.406;2022-09-09T14:10:10;4.30;;;0.90;;
71734;SDS011;59577;52.122;5.406;2022-09-09T14:12:37;3.05;;;1.13;;
71734;SDS011;59577;52.122;5.406;2022-09-09T14:15:04;1.83;;;0.70;;
71734;SDS011;59577;52.122;5.406;2022-09-09T14:17:33;3.42;;;0.82;;
71734;SDS011;59577;52.122;5.406;2022-09-09T14:20:05;2.75;;;0.77;;
71734;SDS011;59577;52.122;5.406;2022-09-09T14:22:35;5.47;;;1.10;;
71734;SDS011;59577;52.122;5.406;2022-09-09T14:25:03;3.33;;;0.98;;
71734;SDS011;59577;52.122;5.406;2022-09-09T14:27:30;2.85;;;0.75;;
71734;SDS011;59577;52.122;5.406;2022-09-09T14:29:56;4.38;;;1.00;;
71734;SDS011;59577;52.122;5.406;2022-09-09T14:32:24;3.35;;;1.02;;
71734;SDS011;59577;52.122;5.406;2022-09-09T14:34:50;5.15;;;1.20;;
71734;SDS011;59577;52.122;5.406;2022-09-09T14:37:17;3.05;;;1.17;;
71734;SDS011;59577;52.122;5.406;2022-09-09T14:39:44;4.43;;;1.05;;
71734;SDS011;59577;52.122;5.406;2022-09-09T14:42:10;2.78;;;1.30;;
71734;SDS011;59577;52.122;5.406;2022-09-09T14:44:37;4.45;;;1.35;;
71734;SDS011;59577;52.122;5.406;2022-09-09T14:47:05;2.90;;;1.15;;
71734;SDS011;59577;52.122;5.406;2022-09-09T14:49:31;3.10;;;1.10;;
71734;SDS011;59577;52.122;5.406;2022-09-09T14:51:58;3.10;;;1.25;;
71734;SDS011;59577;52.122;5.406;2022-09-09T14:54:24;3.80;;;1.33;;
71734;SDS011;59577;52.122;5.406;2022-09-09T14:56:51;4.30;;;1.25;;
71734;SDS011;59577;52.122;5.406;2022-09-09T14:59:17;2.92;;;1.60;;
71734;SDS011;59577;52.122;5.406;2022-09-09T15:01:44;3.75;;;1.63;;
71734;SDS011;59577;52.122;5.406;2022-09-09T15:04:11;3.60;;;1.40;;
71734;SDS011;59577;52.122;5.406;2022-09-09T15:06:39;4.05;;;1.40;;
71734;SDS011;59577;52.122;5.406;2022-09-09T15:09:07;4.43;;;1.42;;
71734;SDS011;59577;52.122;5.406;2022-09-09T15:11:35;3.75;;;1.25;;
71734;SDS011;59577;52.122;5.406;2022-09-09T15:14:04;4.28;;;1.40;;
71734;SDS011;59577;52.122;5.406;2022-09-09T15:16:31;4.07;;;1.65;;
71734;SDS011;59577;52.122;5.406;2022-09-09T15:18:59;4.20;;;0.73;;
71734;SDS011;59577;52.122;5.406;2022-09-09T15:21:28;2.42;;;0.50;;
71734;SDS011;59577;52.122;5.406;2022-09-09T15:23:59;1.83;;;0.60;;
71734;SDS011;59577;52.122;5.406;2022-09-09T15:26:26;2.22;;;0.60;;
71734;SDS011;59577;52.122;5.406;2022-09-09T15:28:53;3.20;;;0.70;;
71734;SDS011;59577;52.122;5.406;2022-09-09T15:31:24;2.70;;;0.40;;
71734;SDS011;59577;52.122;5.406;2022-09-09T15:33:55;1.45;;;0.50;;
71734;SDS011;59577;52.122;5.406;2022-09-09T15:36:30;1.65;;;0.50;;
71734;SDS011;59577;52.122;5.406;2022-09-09T15:38:59;1.35;;;0.50;;
71734;SDS011;59577;52.122;5.406;2022-09-09T15:41:27;4.10;;;0.60;;
71734;SDS011;59577;52.122;5.406;2022-09-09T15:43:55;4.20;;;1.30;;
71734;SDS011;59577;52.122;5.406;2022-09-09T15:46:33;1.98;;;0.40;;
71734;SDS011;59577;52.122;5.406;2022-09-09T15:49:03;1.13;;;0.60;;
71734;SDS011;59577;52.122;5.406;2022-09-09T15:51:30;3.63;;;0.80;;
71734;SDS011;59577;52.122;5.406;2022-09-09T15:54:08;3.88;;;0.80;;
71734;SDS011;59577;52.122;5.406;2022-09-09T15:56:37;1.40;;;0.50;;
71734;SDS011;59577;52.122;5.406;2022-09-09T15:59:03;1.65;;;0.70;;
71734;SDS011;59577;52.122;5.406;2022-09-09T16:01:30;0.93;;;0.47;;
71734;SDS011;59577;52.122;5.406;2022-09-09T16:03:58;1.48;;;0.60;;
71734;SDS011;59577;52.122;5.406;2022-09-09T16:06:26;2.83;;;1.90;;
71734;SDS011;59577;52.122;5.406;2022-09-09T16:08:55;4.80;;;2.10;;
71734;SDS011;59577;52.122;5.406;2022-09-09T16:11:24;8.80;;;4.22;;
71734;SDS011;59577;52.122;5.406;2022-09-09T16:13:52;4.82;;;2.72;;
71734;SDS011;59577;52.122;5.406;2022-09-09T16:16:21;1.67;;;0.75;;
71734;SDS011;59577;52.122;5.406;2022-09-09T16:18:51;1.48;;;0.68;;
71734;SDS011;59577;52.122;5.406;2022-09-09T16:21:24;2.45;;;0.52;;
71734;SDS011;59577;52.122;5.406;2022-09-09T16:23:55;1.10;;;0.60;;
71734;SDS011;59577;52.122;5.406;2022-09-09T16:26:23;3.55;;;0.57;;
71734;SDS011;59577;52.122;5.406;2022-09-09T16:28:49;1.58;;;0.50;;
71734;SDS011;59577;52.122;5.406;2022-09-09T16:31:17;1.10;;;0.50;;
71734;SDS011;59577;52.122;5.406;2022-09-09T16:33:45;4.40;;;0.70;;
71734;SDS011;59577;52.122;5.406;2022-09-09T16:36:14;3.28;;;0.70;;
71734;SDS011;59577;52.122;5.406;2022-09-09T16:38:43;2.77;;;0.70;;
71734;SDS011;59577;52.122;5.406;2022-09-09T16:41:10;2.63;;;0.50;;
71734;SDS011;59577;52.122;5.406;2022-09-09T16:43:37;0.85;;;0.50;;
71734;SDS011;59577;52.122;5.406;2022-09-09T16:46:14;3.30;;;0.77;;
71734;SDS011;59577;52.122;5.406;2022-09-09T16:48:43;2.10;;;0.45;;
71734;SDS011;59577;52.122;5.406;2022-09-09T16:51:12;3.50;;;1.02;;
71734;SDS011;59577;52.122;5.406;2022-09-09T16:53:50;2.90;;;0.75;;
71734;SDS011;59577;52.122;5.406;2022-09-09T16:56:18;2.13;;;0.63;;
71734;SDS011;59577;52.122;5.406;2022-09-09T16:58:51;4.25;;;0.90;;
71734;SDS011;59577;52.122;5.406;2022-09-09T17:01:25;5.93;;;1.02;;
71734;SDS011;59577;52.122;5.406;2022-09-09T17:03:53;1.63;;;0.70;;
71734;SDS011;59577;52.122;5.406;2022-09-09T17:06:26;2.60;;;0.82;;
71734;SDS011;59577;52.122;5.406;2022-09-09T17:08:54;1.40;;;0.60;;
71734;SDS011;59577;52.122;5.406;2022-09-09T17:11:25;3.38;;;0.80;;
71734;SDS011;59577;52.122;5.406;2022-09-09T17:13:52;1.70;;;1.00;;